createdAt,value
2019-04-22T00:04:10.087Z,10.74
2019-04-22T00:09:38.724Z,10.94
2019-04-22T00:14:36.608Z,10.91
2019-04-22T00:19:55.484Z,10.93
2019-04-22T00:24:51.205Z,10.77
2019-04-22T00:30:53.810Z,10.98
2019-04-22T00:35:00.601Z,10.97
2019-04-22T00:40:07.338Z,10.66
2019-04-22T00:45:11.854Z,10.72
2019-04-22T00:50:21.777Z,10.70
2019-04-22T00:55:26.268Z,10.54
2019-04-22T01:00:31.080Z,10.56
2019-04-22T01:05:46.859Z,10.58
2019-04-22T01:10:45.449Z,10.66
2019-04-22T01:15:47.472Z,10.63
2019-04-22T01:21:13.625Z,10.32
2019-04-22T01:25:53.104Z,9.92
2019-04-22T01:30:48.995Z,10.05
2019-04-22T01:36:04.659Z,10.37
2019-04-22T01:41:16.524Z,10.60
2019-04-22T01:46:25.761Z,10.38
2019-04-22T01:51:28.241Z,10.28
2019-04-22T01:56:35.021Z,9.92
2019-04-22T02:01:48.376Z,9.58
2019-04-22T02:06:43.978Z,9.94
2019-04-22T02:16:57.012Z,10.26
2019-04-22T02:21:56.591Z,10.10
2019-04-22T02:27:00.389Z,9.73
2019-04-22T02:32:19.388Z,9.69
2019-04-22T02:37:35.342Z,9.77
2019-04-22T02:42:42.858Z,9.88
2019-04-22T02:47:55.755Z,9.99
2019-04-22T02:52:58.072Z,10.01
2019-04-22T02:57:57.081Z,10.01
2019-04-22T03:03:24.825Z,9.68
2019-04-22T03:08:21.136Z,9.49
2019-04-22T03:13:29.445Z,9.70
2019-04-22T03:18:33.553Z,9.65
2019-04-22T03:23:34.114Z,9.66
2019-04-22T03:28:37.283Z,9.68
2019-04-22T03:39:12.763Z,9.80
2019-04-22T03:44:07.858Z,9.69
2019-04-22T03:49:23.942Z,9.52
2019-04-22T03:59:29.488Z,9.17
2019-04-22T04:19:34.949Z,8.70
2019-04-22T04:24:48.118Z,8.54
2019-04-22T04:35:03.207Z,8.42
2019-04-22T04:39:57.962Z,8.55
2019-04-22T04:45:26.598Z,8.65
2019-04-22T04:49:57.041Z,8.82
2019-04-22T04:55:14.432Z,8.86
2019-04-22T05:05:16.834Z,8.72
2019-04-22T05:10:26.487Z,8.82
2019-04-22T05:20:33.726Z,8.51
2019-04-22T05:30:34.241Z,8.69
2019-04-22T05:35:41.342Z,8.99
2019-04-22T05:40:40.767Z,9.29
2019-04-22T05:45:51.528Z,9.46
2019-04-22T05:50:57.928Z,9.13
2019-04-22T05:56:10.097Z,9.16
2019-04-22T06:06:17.883Z,9.86
2019-04-22T06:11:25.681Z,10.08
2019-04-22T06:16:31.150Z,10.28
2019-04-22T06:26:53.566Z,11.07
2019-04-22T06:36:51.103Z,11.99
2019-04-22T06:42:00.778Z,11.11
2019-04-22T06:47:03.432Z,11.31
2019-04-22T06:57:13.843Z,11.38
2019-04-22T07:02:23.888Z,11.60
2019-04-22T07:07:24.128Z,11.79
2019-04-22T07:12:31.375Z,11.64
2019-04-22T07:17:40.824Z,12.34
2019-04-22T07:22:59.438Z,11.95
2019-04-22T07:27:50.563Z,12.05
2019-04-22T07:38:00.291Z,12.15
2019-04-22T07:43:09.820Z,11.93
2019-04-22T07:48:22.547Z,11.88
2019-04-22T07:53:17.253Z,11.91
2019-04-22T07:58:26.041Z,11.61
2019-04-22T08:03:37.856Z,11.46
2019-04-22T08:08:38.804Z,11.22
2019-04-22T08:13:43.879Z,11.03
2019-04-22T08:18:47.324Z,10.85
2019-04-22T08:23:59.373Z,10.67
2019-04-22T08:29:11.530Z,10.64
2019-04-22T08:34:10.672Z,10.79
2019-04-22T08:39:14.077Z,10.88
2019-04-22T08:44:17.352Z,10.86
2019-04-22T08:49:19.913Z,10.74
2019-04-22T08:54:25.289Z,10.63
2019-04-22T08:59:31.524Z,10.60
2019-04-22T09:04:39.078Z,10.48
2019-04-22T09:09:48.948Z,10.25
2019-04-22T09:14:57.806Z,10.23
2019-04-22T09:19:55.876Z,10.45
2019-04-22T09:24:56.048Z,10.60
2019-04-22T09:30:10.468Z,11.27
2019-04-22T09:35:24.889Z,12.09
2019-04-22T09:40:20.265Z,12.19
2019-04-22T09:45:16.346Z,12.63
2019-04-22T09:50:29.421Z,12.51
2019-04-22T09:55:29.772Z,12.67
2019-04-22T10:00:42.696Z,12.41
2019-04-22T10:05:52.194Z,12.57
2019-04-22T10:10:48.996Z,13.00
2019-04-22T10:15:57.304Z,13.45
2019-04-22T10:21:02.098Z,13.73
2019-04-22T10:26:04.857Z,13.85
2019-04-22T10:31:17.130Z,14.08
2019-04-22T10:35:49.967Z,13.89
2019-04-22T10:40:54.538Z,14.08
2019-04-22T10:45:59.898Z,14.18
2019-04-22T10:51:04.564Z,14.20
2019-04-22T10:56:09.329Z,14.26
2019-04-22T11:01:13.602Z,14.95
2019-04-22T11:06:19.076Z,14.75
2019-04-22T11:11:37.557Z,15.04
2019-04-22T11:16:31.796Z,15.40
2019-04-22T11:21:35.957Z,15.19
2019-04-22T11:26:40.953Z,15.50
2019-04-22T11:31:44.575Z,15.87
2019-04-22T11:36:47.967Z,15.77
2019-04-22T11:41:52.379Z,15.15
2019-04-22T11:46:57.043Z,15.26
2019-04-22T11:52:04.769Z,15.56
2019-04-22T11:57:07.464Z,15.30
2019-04-22T12:02:14.421Z,15.23
2019-04-22T12:07:17.165Z,15.07
2019-04-22T12:12:21.551Z,15.14
2019-04-22T12:17:26.517Z,15.18
2019-04-22T12:22:31.270Z,15.00
2019-04-22T12:27:35.156Z,15.00
2019-04-22T12:32:39.042Z,14.85
2019-04-22T12:37:49.570Z,14.60
2019-04-22T12:42:49.060Z,14.45
2019-04-22T12:48:00.109Z,14.10
2019-04-22T12:53:10.441Z,13.89
2019-04-22T12:58:09.740Z,14.25
2019-04-22T13:03:13.783Z,14.84
2019-04-22T13:08:18.052Z,15.64
2019-04-22T13:13:22.935Z,15.70
2019-04-22T13:18:36.185Z,16.09
2019-04-22T13:23:31.813Z,16.04
2019-04-22T13:28:36.495Z,15.60
2019-04-22T13:33:40.989Z,15.14
2019-04-22T13:38:45.031Z,14.61
2019-04-22T13:43:49.326Z,13.55
2019-04-22T13:49:25.593Z,13.26
2019-04-22T13:59:23.065Z,14.01
2019-04-22T14:04:23.135Z,14.34
2019-04-22T14:09:26.466Z,14.61
2019-04-22T14:14:30.252Z,14.50
2019-04-22T14:19:36.293Z,14.87
2019-04-22T14:24:40.666Z,15.07
2019-04-22T14:29:44.009Z,14.82
2019-04-22T14:34:49.040Z,14.83
2019-04-22T14:39:53.806Z,14.77
2019-04-22T14:45:21.960Z,14.73
2019-04-22T14:50:22.036Z,14.77
2019-04-22T14:55:17.500Z,14.82
2019-04-22T15:00:18.128Z,15.01
2019-04-22T15:05:23.819Z,15.16
2019-04-22T15:10:28.230Z,15.12
2019-04-22T15:15:59.530Z,15.10
2019-04-22T15:21:09.097Z,15.25
2019-04-22T15:26:12.917Z,15.29
2019-04-22T15:31:19.372Z,15.23
2019-04-22T15:36:24.121Z,15.28
2019-04-22T15:41:28.573Z,15.51
2019-04-22T15:46:32.140Z,15.54
2019-04-22T15:51:36.413Z,15.47
2019-04-22T15:56:41.743Z,15.50
2019-04-22T16:01:46.660Z,15.73
2019-04-22T16:06:50.222Z,15.73
2019-04-22T16:11:54.051Z,15.88
2019-04-22T16:16:58.751Z,15.58
2019-04-22T16:22:16.821Z,15.36
2019-04-22T16:27:22.692Z,15.65
2019-04-22T16:32:27.615Z,15.75
2019-04-22T16:37:32.610Z,15.64
2019-04-22T16:42:43.849Z,15.37
2019-04-22T16:47:41.877Z,15.10
2019-04-22T16:52:54.291Z,15.01
2019-04-22T16:57:58.725Z,14.89
2019-04-22T17:03:22.637Z,14.73
2019-04-22T17:08:26.639Z,14.72
2019-04-22T17:13:32.754Z,14.70
2019-04-22T17:18:35.314Z,14.67
2019-04-22T17:23:38.636Z,14.61
2019-04-22T17:28:41.819Z,14.56
2019-04-22T17:33:45.000Z,14.37
2019-04-22T17:38:55.068Z,14.27
2019-04-22T17:44:21.750Z,14.16
2019-04-22T17:49:45.714Z,14.03
2019-04-22T17:54:49.397Z,13.90
2019-04-22T17:59:50.485Z,13.77
2019-04-22T18:04:46.764Z,13.67
2019-04-22T18:15:10.248Z,13.55
2019-04-22T18:20:13.007Z,13.44
2019-04-22T18:25:12.367Z,13.34
2019-04-22T18:30:21.874Z,13.26
2019-04-22T18:35:30.848Z,13.18
2019-04-22T18:40:37.286Z,13.06
2019-04-22T18:45:50.506Z,12.96
2019-04-22T18:50:59.919Z,12.85
2019-04-22T18:56:03.872Z,12.78
2019-04-22T19:00:48.419Z,12.69
2019-04-22T19:06:24.592Z,12.62
2019-04-22T19:11:17.110Z,12.52
2019-04-22T19:16:30.921Z,12.46
2019-04-22T19:21:26.409Z,12.38
2019-04-22T19:26:44.419Z,12.27
2019-04-22T19:31:41.012Z,12.19
2019-04-22T19:36:46.230Z,12.05
2019-04-22T19:41:53.688Z,11.99
2019-04-22T19:47:13.914Z,11.92
2019-04-22T19:52:05.458Z,11.86
2019-04-22T19:56:58.986Z,11.79
2019-04-22T20:02:21.869Z,11.70
2019-04-22T20:07:40.114Z,11.61
2019-04-22T20:12:42.794Z,11.51
2019-04-22T20:18:19.270Z,11.42
2019-04-22T20:22:57.636Z,11.38
2019-04-22T20:28:07.480Z,11.29
2019-04-22T20:33:02.136Z,11.25
2019-04-22T20:38:14.878Z,11.15
2019-04-22T20:43:23.527Z,11.08
2019-04-22T20:48:10.352Z,11.01
2019-04-22T20:53:34.411Z,11.00
2019-04-22T20:58:32.761Z,10.99
2019-04-22T21:03:29.346Z,10.92
2019-04-22T21:08:42.073Z,10.89
2019-04-22T21:13:50.475Z,10.69
2019-04-22T21:18:46.062Z,10.62
2019-04-22T21:23:53.513Z,10.48
2019-04-22T21:29:05.464Z,10.44
2019-04-22T21:34:06.844Z,10.34
2019-04-22T21:39:15.581Z,10.25
2019-04-22T21:44:21.267Z,10.15
2019-04-22T21:49:25.052Z,10.09
2019-04-22T21:54:34.440Z,9.97
2019-04-22T21:59:33.300Z,9.98
2019-04-22T22:04:33.720Z,9.91
2019-04-22T22:09:43.975Z,9.86
2019-04-22T22:14:49.770Z,9.80
2019-04-22T22:19:54.326Z,9.77
2019-04-22T22:25:01.479Z,9.73
2019-04-22T22:30:23.665Z,9.65
2019-04-22T22:35:11.218Z,9.60
2019-04-22T22:40:03.478Z,9.49
2019-04-22T22:45:10.757Z,9.38
2019-04-22T22:50:27.470Z,9.34
2019-04-22T22:55:36.614Z,9.29
2019-04-22T23:00:35.607Z,9.28
2019-04-22T23:05:45.439Z,9.19
2019-04-22T23:10:57.461Z,9.17
2019-04-22T23:15:44.332Z,9.11
2019-04-22T23:20:41.792Z,9.05
2019-04-22T23:26:06.832Z,9.01
2019-04-22T23:31:12.651Z,8.97
2019-04-22T23:36:18.587Z,8.88
2019-04-22T23:46:56.701Z,8.77
2019-04-22T23:52:08.883Z,8.71
2019-04-22T23:57:04.697Z,8.57
